Walkerville, Michigan
Current Conditions -  °F | °C
As of 9:14 PM on Monday 22 Dec 2014 (Local Time) from KFFX Reporting Station
Light Snow Light Snow  
Wind Chill: 24°   Ceiling: 900
Heat Index: 33°   Visibility: 5mi
Dew Point: 32°   Wind: 14mph
Humidity: 96%   Direction: 100°E
Pressure: 29.8"   Gusts: 24mph
Location:  43.71°N, 86.12°W
Report Text: KFFX 230214Z AUTO 10012G21KT 5SM -SN BKN009 BKN016 OVC030 01/00 A2980 RMK AO2 T00080002
Loading
Personal Weather Stations






























Interactive Weather Map New forecast layout! Learn more

10-Day Weather Forecast

Advertisements
Track Severe Weather on mobile